Terminal Aerodrome Forecast
Issued by NWS Cleveland, OH

Home | Current Version | Previous Version | Graphics & Text | Print | Product List | Glossary On
Versions: 1 2 3 4 5 6 7 8 9 10 11 12 13 14 15 16
000
FTUS41 KCLE 282300
TAFTOL
TAF
KTOL 282327Z 2900/2924 17006KT P6SM OVC080
     FM290600 18006KT P6SM SCT020 OVC045
     FM291400 20010G16KT P6SM VCSH SCT025 OVC040
     FM291600 21012G18KT P6SM VCSH OVC025
     FM292000 21012G18KT 5SM -DZ BR OVC012
      TEMPO 2920/2924 3SM -RA BR OVC008=

USA.gov is the U.S. government's official web portal to all federal, state and local government web resources and services.